createdAt,value
2023-05-21T00:00:12.907Z,7.20
2023-05-21T00:01:17.040Z,6.41
2023-05-21T00:02:20.730Z,6.77
2023-05-21T00:03:24.391Z,6.36
2023-05-21T00:04:29.444Z,5.95
2023-05-21T00:05:33.356Z,6.49
2023-05-21T00:06:37.221Z,6.71
2023-05-21T00:07:41.270Z,7.73
2023-05-21T00:08:44.544Z,7.43
2023-05-21T00:09:47.928Z,7.66
2023-05-21T00:10:51.241Z,7.82
2023-05-21T00:11:54.443Z,8.72
2023-05-21T00:12:57.821Z,8.79
2023-05-21T00:14:01.087Z,7.51
2023-05-21T00:15:04.826Z,8.18
2023-05-21T00:16:08.676Z,8.85
2023-05-21T00:17:12.864Z,9.24
2023-05-21T00:18:16.897Z,9.65
2023-05-21T00:19:20.167Z,9.15
2023-05-21T00:20:24.001Z,8.57
2023-05-21T00:21:27.465Z,10.77
2023-05-21T00:22:30.733Z,8.35
2023-05-21T00:23:34.901Z,6.34
2023-05-21T00:24:38.232Z,6.78
2023-05-21T00:25:41.575Z,6.78
2023-05-21T00:26:44.980Z,6.46
2023-05-21T00:27:48.136Z,5.72
2023-05-21T00:28:52.048Z,5.85
2023-05-21T00:29:55.274Z,4.91
2023-05-21T00:30:58.507Z,5.94
2023-05-21T00:32:02.076Z,6.14
2023-05-21T00:33:05.575Z,6.51
2023-05-21T00:34:09.413Z,6.11
2023-05-21T00:35:12.779Z,5.93
2023-05-21T00:36:16.913Z,6.30
2023-05-21T00:37:20.179Z,6.86
2023-05-21T00:38:24.242Z,6.72
2023-05-21T00:39:27.552Z,6.79
2023-05-21T00:40:32.142Z,7.23
2023-05-21T00:41:36.666Z,6.62
2023-05-21T00:42:40.008Z,5.66
2023-05-21T00:43:45.406Z,5.53
2023-05-21T00:44:49.046Z,6.05
2023-05-21T00:45:54.561Z,5.92
2023-05-21T00:46:58.074Z,5.16
2023-05-21T00:48:03.404Z,5.46
2023-05-21T00:49:07.595Z,4.83
2023-05-21T00:50:12.692Z,5.40
2023-05-21T00:51:19.162Z,4.68
2023-05-21T00:52:23.780Z,5.39
2023-05-21T00:53:28.302Z,4.47
2023-05-21T00:54:31.993Z,4.83
2023-05-21T00:55:35.692Z,4.60
2023-05-21T00:56:39.865Z,5.29
2023-05-21T00:57:43.706Z,5.53
2023-05-21T00:58:48.701Z,6.13
2023-05-21T00:59:54.380Z,5.97
2023-05-21T01:00:57.814Z,5.35
2023-05-21T01:02:06.896Z,5.93
2023-05-21T01:03:11.547Z,7.12
2023-05-21T01:04:14.981Z,7.74
2023-05-21T01:05:18.681Z,7.88
2023-05-21T01:06:22.111Z,9.10
2023-05-21T01:07:25.382Z,10.15
2023-05-21T01:08:30.645Z,9.50
2023-05-21T01:09:33.957Z,7.44
2023-05-21T01:10:37.548Z,8.52
2023-05-21T01:11:50.930Z,6.81
2023-05-21T01:12:59.402Z,7.38
2023-05-21T01:14:03.458Z,5.55
2023-05-21T01:15:08.657Z,6.44
2023-05-21T01:16:14.362Z,5.89
2023-05-21T01:17:18.361Z,5.72
2023-05-21T01:18:23.383Z,5.78
2023-05-21T01:19:26.973Z,6.37
2023-05-21T01:20:32.832Z,7.27
2023-05-21T01:21:41.172Z,6.80
2023-05-21T01:22:58.446Z,7.50
2023-05-21T01:24:02.930Z,7.15
2023-05-21T01:25:06.510Z,6.71
2023-05-21T01:26:14.159Z,7.18
2023-05-21T01:27:18.155Z,7.54
2023-05-21T01:28:21.696Z,7.97
2023-05-21T01:29:26.196Z,6.87
2023-05-21T01:30:29.595Z,7.08
2023-05-21T01:31:57.759Z,7.24
2023-05-21T01:33:06.079Z,7.79
2023-05-21T01:34:13.335Z,7.58
2023-05-21T01:35:28.647Z,6.96
2023-05-21T01:36:41.647Z,6.47
2023-05-21T01:37:58.805Z,5.80
2023-05-21T01:39:10.513Z,5.45
2023-05-21T01:40:29.958Z,5.35
2023-05-21T01:41:39.447Z,4.87
2023-05-21T01:42:46.570Z,4.30
2023-05-21T01:43:52.054Z,4.90
2023-05-21T01:44:58.144Z,5.42
2023-05-21T01:46:02.844Z,5.34
2023-05-21T01:47:07.270Z,5.35
2023-05-21T01:48:13.096Z,5.66
2023-05-21T01:49:19.591Z,5.20
2023-05-21T01:50:25.811Z,5.15
2023-05-21T01:51:29.307Z,5.31
2023-05-21T01:52:32.676Z,5.68
2023-05-21T01:53:36.455Z,5.56
2023-05-21T01:54:39.659Z,5.72
2023-05-21T01:55:43.935Z,4.91
2023-05-21T01:56:48.617Z,4.93
2023-05-21T01:57:54.225Z,5.03
2023-05-21T01:59:00.172Z,5.10
2023-05-21T02:00:05.965Z,4.63
2023-05-21T02:01:18.423Z,4.43
2023-05-21T02:02:21.783Z,4.47
2023-05-21T02:03:28.317Z,4.33
2023-05-21T02:04:32.488Z,4.44
2023-05-21T02:05:36.230Z,3.98
2023-05-21T02:06:40.349Z,4.07
2023-05-21T02:07:44.624Z,4.30
2023-05-21T02:08:49.063Z,4.09
2023-05-21T02:09:52.356Z,4.07
2023-05-21T02:10:55.619Z,3.80
2023-05-21T02:11:59.038Z,3.98
2023-05-21T02:13:02.440Z,4.14
2023-05-21T02:14:06.046Z,3.71
2023-05-21T02:15:09.839Z,3.98
2023-05-21T02:16:15.674Z,3.53
2023-05-21T02:17:19.223Z,3.71
2023-05-21T02:18:22.871Z,3.54
2023-05-21T02:19:26.582Z,3.68
2023-05-21T02:20:30.152Z,3.38
2023-05-21T02:21:33.651Z,3.60
2023-05-21T02:22:37.151Z,3.52
2023-05-21T02:23:40.443Z,3.96
2023-05-21T02:24:43.753Z,3.56
2023-05-21T02:25:47.589Z,3.73
2023-05-21T02:26:52.119Z,3.58
2023-05-21T02:27:57.454Z,3.86
2023-05-21T02:29:00.807Z,3.38
2023-05-21T02:30:06.564Z,3.73
2023-05-21T02:31:09.772Z,3.71
2023-05-21T02:32:14.684Z,3.77
2023-05-21T02:33:17.912Z,4.16
2023-05-21T02:34:22.957Z,4.48
2023-05-21T02:35:26.928Z,4.06
2023-05-21T02:36:33.937Z,4.18
2023-05-21T02:37:38.384Z,4.22
2023-05-21T02:38:44.268Z,4.58
2023-05-21T02:39:47.618Z,4.57
2023-05-21T02:40:52.427Z,4.45
2023-05-21T02:41:55.740Z,4.80
2023-05-21T02:42:58.963Z,5.28
2023-05-21T02:44:02.416Z,5.90
2023-05-21T02:45:08.953Z,6.95
2023-05-21T02:46:13.062Z,6.92
2023-05-21T02:47:16.322Z,6.33
2023-05-21T02:48:19.743Z,7.02
2023-05-21T02:49:23.175Z,6.58
2023-05-21T02:50:26.816Z,7.06
2023-05-21T02:51:33.787Z,6.43
2023-05-21T02:52:37.236Z,6.84
2023-05-21T02:53:40.667Z,6.86
2023-05-21T02:54:44.025Z,7.53
2023-05-21T02:55:48.345Z,7.71
2023-05-21T02:56:52.413Z,7.39
2023-05-21T02:57:55.788Z,7.69
2023-05-21T02:58:59.182Z,7.43
2023-05-21T03:00:03.020Z,7.83
2023-05-21T03:01:06.514Z,8.32
2023-05-21T03:02:10.366Z,8.51
2023-05-21T03:03:14.205Z,8.01
2023-05-21T03:04:24.300Z,8.41
2023-05-21T03:05:28.278Z,7.45
2023-05-21T03:06:32.881Z,7.23
2023-05-21T03:07:38.440Z,7.55
2023-05-21T03:08:44.008Z,7.25
2023-05-21T03:09:47.528Z,9.63
2023-05-21T03:10:50.877Z,9.84
2023-05-21T03:11:56.304Z,11.78
2023-05-21T03:13:00.695Z,20.90
2023-05-21T03:14:03.989Z,34.90
2023-05-21T03:15:08.990Z,36.82
2023-05-21T03:16:13.047Z,36.76
2023-05-21T03:17:17.865Z,30.20
2023-05-21T03:18:21.387Z,22.78
2023-05-21T03:19:25.603Z,21.86
2023-05-21T03:20:29.605Z,19.47
2023-05-21T03:21:34.527Z,17.46
2023-05-21T03:22:38.313Z,16.21
2023-05-21T03:23:42.611Z,13.22
2023-05-21T03:24:45.974Z,13.54
2023-05-21T03:25:49.930Z,12.69
2023-05-21T03:26:53.306Z,11.83
2023-05-21T03:27:56.642Z,11.08
2023-05-21T03:29:17.921Z,10.03
2023-05-21T03:30:21.831Z,9.58
2023-05-21T03:31:55.451Z,9.91
2023-05-21T03:32:58.960Z,9.46
2023-05-21T03:34:05.086Z,8.84
2023-05-21T03:35:09.244Z,8.25
2023-05-21T03:36:12.576Z,8.19
2023-05-21T03:37:16.040Z,8.16
2023-05-21T03:38:19.384Z,7.71
2023-05-21T03:39:22.807Z,7.57
2023-05-21T03:40:26.213Z,7.06
2023-05-21T03:41:29.555Z,7.16
2023-05-21T03:42:44.294Z,6.30
2023-05-21T03:43:47.821Z,5.57
2023-05-21T03:44:51.086Z,5.91
2023-05-21T03:46:14.188Z,5.99
2023-05-21T03:47:52.908Z,6.69
2023-05-21T03:48:56.752Z,6.10
2023-05-21T03:50:01.781Z,6.11
2023-05-21T03:51:05.231Z,6.03
2023-05-21T03:52:08.623Z,6.41
2023-05-21T03:53:12.052Z,6.52
2023-05-21T03:54:15.575Z,6.76
2023-05-21T03:55:19.416Z,5.70
2023-05-21T03:56:23.735Z,5.83
2023-05-21T03:57:27.020Z,5.90
2023-05-21T03:58:32.113Z,6.42
2023-05-21T03:59:35.449Z,5.75
2023-05-21T04:00:38.891Z,6.15
2023-05-21T04:01:42.302Z,5.71
2023-05-21T04:02:48.626Z,5.52
2023-05-21T04:03:53.702Z,5.19
2023-05-21T04:04:59.795Z,5.02
2023-05-21T04:06:04.366Z,4.78
2023-05-21T04:07:15.495Z,4.95
2023-05-21T04:08:18.806Z,5.31
2023-05-21T04:09:22.673Z,5.51
2023-05-21T04:10:26.068Z,5.51
2023-05-21T04:11:30.432Z,5.40
2023-05-21T04:12:33.742Z,5.30
2023-05-21T04:13:37.098Z,5.64
2023-05-21T04:14:40.689Z,5.58
2023-05-21T04:15:45.463Z,6.39
2023-05-21T04:16:49.890Z,6.05
2023-05-21T04:17:53.384Z,6.09
2023-05-21T04:18:56.805Z,5.65
2023-05-21T04:20:02.868Z,5.83
2023-05-21T04:21:07.026Z,5.54
2023-05-21T04:22:12.806Z,5.68
2023-05-21T04:23:16.158Z,6.31
2023-05-21T04:24:20.154Z,6.80
2023-05-21T04:25:43.970Z,7.51
2023-05-21T04:26:48.813Z,7.17
2023-05-21T04:27:53.346Z,7.60
2023-05-21T04:28:56.667Z,7.80
2023-05-21T04:30:00.513Z,7.02
2023-05-21T04:31:04.051Z,6.90
2023-05-21T04:32:07.514Z,6.93
2023-05-21T04:33:10.971Z,7.11
2023-05-21T04:34:14.312Z,6.60
2023-05-21T04:35:17.699Z,7.87
2023-05-21T04:36:21.001Z,7.52
2023-05-21T04:37:28.604Z,8.44
2023-05-21T04:38:32.568Z,8.79
2023-05-21T04:39:35.895Z,9.67
2023-05-21T04:40:39.285Z,9.25
2023-05-21T04:41:42.618Z,9.00
2023-05-21T04:42:51.462Z,9.35
2023-05-21T04:43:59.094Z,9.68
2023-05-21T04:45:06.533Z,9.24
2023-05-21T04:46:13.598Z,9.82
2023-05-21T04:47:19.034Z,9.59
2023-05-21T04:48:26.362Z,9.59
2023-05-21T04:49:29.608Z,8.66
2023-05-21T04:50:34.437Z,8.75
2023-05-21T04:51:38.614Z,8.35
2023-05-21T04:52:42.205Z,8.97
2023-05-21T04:53:45.503Z,9.19
2023-05-21T04:54:48.968Z,8.50
2023-05-21T04:55:52.266Z,7.68
2023-05-21T04:56:56.719Z,8.27
2023-05-21T04:58:00.256Z,8.38
2023-05-21T04:59:05.600Z,8.75
2023-05-21T05:00:11.129Z,8.23
2023-05-21T05:01:18.217Z,8.21
2023-05-21T05:02:22.441Z,7.73
2023-05-21T05:03:25.848Z,8.22
2023-05-21T05:04:29.102Z,7.25
2023-05-21T05:05:32.460Z,7.53
2023-05-21T05:06:36.063Z,7.22
2023-05-21T05:07:39.357Z,7.89
2023-05-21T05:08:42.853Z,6.70
2023-05-21T05:09:46.321Z,5.86
2023-05-21T05:10:50.575Z,6.19
2023-05-21T05:11:53.876Z,5.01
2023-05-21T05:12:57.182Z,5.54
2023-05-21T05:14:01.159Z,5.42
2023-05-21T05:15:04.819Z,4.86
2023-05-21T05:16:08.834Z,4.84
2023-05-21T05:17:15.393Z,4.51
2023-05-21T05:18:19.708Z,4.88
2023-05-21T05:19:22.998Z,4.45
2023-05-21T05:20:26.675Z,4.69
2023-05-21T05:21:30.019Z,4.81
2023-05-21T05:22:33.368Z,4.83
2023-05-21T05:23:36.837Z,5.39
2023-05-21T05:24:40.083Z,5.79
2023-05-21T05:25:43.429Z,6.38
2023-05-21T05:26:46.664Z,6.94
2023-05-21T05:27:49.996Z,6.16
2023-05-21T05:28:54.818Z,7.01
2023-05-21T05:29:58.049Z,7.59
2023-05-21T05:31:01.472Z,7.29
2023-05-21T05:32:05.276Z,8.09
2023-05-21T05:33:08.493Z,7.70
2023-05-21T05:34:11.764Z,7.87
2023-05-21T05:35:15.068Z,8.52
2023-05-21T05:36:18.444Z,8.39
2023-05-21T05:37:22.625Z,8.04
2023-05-21T05:38:27.752Z,8.09
2023-05-21T05:39:31.343Z,8.19
2023-05-21T05:40:34.731Z,8.65
2023-05-21T05:41:38.383Z,8.37
2023-05-21T05:42:42.178Z,8.45
2023-05-21T05:43:51.027Z,8.93
2023-05-21T05:44:56.811Z,8.16
2023-05-21T05:46:01.165Z,8.01
2023-05-21T05:47:09.839Z,8.55
2023-05-21T05:48:15.245Z,9.35
2023-05-21T05:49:18.556Z,8.05
2023-05-21T05:50:22.326Z,8.53
2023-05-21T05:51:26.198Z,8.22
2023-05-21T05:52:29.601Z,7.58
2023-05-21T05:53:35.747Z,7.96
2023-05-21T05:54:39.023Z,7.81
2023-05-21T05:55:42.411Z,7.91
2023-05-21T05:56:45.729Z,7.93
2023-05-21T05:57:49.180Z,8.59
2023-05-21T05:58:53.785Z,8.27
2023-05-21T05:59:58.471Z,8.30
2023-05-21T06:01:02.793Z,8.42
2023-05-21T06:02:06.579Z,8.46
2023-05-21T06:03:10.099Z,8.26
2023-05-21T06:04:13.467Z,8.20
2023-05-21T06:05:17.288Z,8.09
2023-05-21T06:06:21.251Z,7.51
2023-05-21T06:07:25.325Z,8.49
2023-05-21T06:08:28.588Z,7.13
2023-05-21T06:09:32.052Z,7.26
2023-05-21T06:10:35.452Z,7.37
2023-05-21T06:11:39.960Z,7.92
2023-05-21T06:12:43.335Z,8.05
2023-05-21T06:13:46.859Z,7.72
2023-05-21T06:14:52.127Z,7.16
2023-05-21T06:15:56.276Z,7.11
2023-05-21T06:16:59.523Z,7.45
2023-05-21T06:18:03.913Z,7.14
2023-05-21T06:19:07.376Z,7.35
2023-05-21T06:20:10.870Z,7.39
2023-05-21T06:21:14.244Z,7.62
2023-05-21T06:22:17.672Z,8.32
2023-05-21T06:23:21.745Z,8.38
2023-05-21T06:24:26.951Z,8.27
2023-05-21T06:25:30.576Z,8.93
2023-05-21T06:26:33.871Z,9.39
2023-05-21T06:27:38.352Z,10.30
2023-05-21T06:28:46.366Z,11.19
2023-05-21T06:29:50.219Z,10.72
2023-05-21T06:30:53.738Z,11.54
2023-05-21T06:31:57.435Z,12.99
2023-05-21T06:33:00.846Z,15.13
2023-05-21T06:34:04.728Z,16.85
2023-05-21T06:35:09.934Z,17.96
2023-05-21T06:36:13.208Z,17.40
2023-05-21T06:37:26.414Z,17.54
2023-05-21T06:38:30.471Z,18.50
2023-05-21T06:39:33.800Z,18.63
2023-05-21T06:40:37.352Z,19.91
2023-05-21T06:41:40.893Z,19.96
2023-05-21T06:43:00.653Z,20.57
2023-05-21T06:44:13.103Z,19.84
2023-05-21T06:45:34.664Z,20.91
2023-05-21T06:46:45.082Z,19.97
2023-05-21T06:47:48.543Z,20.57
2023-05-21T06:48:52.804Z,19.80
2023-05-21T06:49:56.624Z,19.51
2023-05-21T06:51:00.409Z,21.13
2023-05-21T06:52:03.991Z,20.37
2023-05-21T06:53:07.481Z,19.51
2023-05-21T06:54:11.395Z,19.33
2023-05-21T06:55:16.621Z,20.33
2023-05-21T06:56:41.306Z,20.18
2023-05-21T06:57:44.917Z,21.45
2023-05-21T06:58:48.227Z,20.53
2023-05-21T06:59:53.822Z,21.70
2023-05-21T07:01:01.916Z,20.47
2023-05-21T07:02:06.136Z,20.77
2023-05-21T07:03:09.571Z,20.00
2023-05-21T07:04:14.549Z,20.54
2023-05-21T07:05:19.229Z,20.21
2023-05-21T07:06:23.042Z,20.35
2023-05-21T07:07:26.526Z,19.27
2023-05-21T07:08:29.813Z,20.69
2023-05-21T07:09:34.453Z,21.94
2023-05-21T07:10:37.859Z,21.64
2023-05-21T07:11:42.462Z,21.05
2023-05-21T07:12:46.788Z,20.52
2023-05-21T07:13:50.493Z,20.50
2023-05-21T07:14:53.947Z,21.09
2023-05-21T07:15:57.376Z,19.62
2023-05-21T07:17:02.277Z,19.43
2023-05-21T07:18:06.256Z,18.37
2023-05-21T07:19:10.333Z,18.11
2023-05-21T07:20:14.896Z,19.63
2023-05-21T07:21:22.550Z,18.11
2023-05-21T07:22:28.458Z,18.39
2023-05-21T07:23:34.564Z,17.88
2023-05-21T07:24:38.062Z,18.65
2023-05-21T07:25:41.597Z,17.47
2023-05-21T07:26:44.831Z,16.99
2023-05-21T07:27:48.786Z,18.06
2023-05-21T07:28:52.016Z,17.27
2023-05-21T07:29:55.891Z,17.61
2023-05-21T07:30:59.410Z,16.96
2023-05-21T07:32:08.902Z,17.81
2023-05-21T07:33:13.444Z,16.79
2023-05-21T07:34:17.146Z,17.44
2023-05-21T07:35:21.089Z,17.87
2023-05-21T07:36:25.012Z,16.54
2023-05-21T07:37:29.394Z,16.11
2023-05-21T07:38:33.792Z,16.51
2023-05-21T07:39:38.470Z,16.21
2023-05-21T07:40:42.303Z,16.31
2023-05-21T07:41:45.731Z,15.73
2023-05-21T07:42:49.093Z,16.82
2023-05-21T07:43:55.023Z,16.24
2023-05-21T07:44:58.414Z,16.67
2023-05-21T07:46:03.773Z,16.45
2023-05-21T07:47:07.147Z,17.17
2023-05-21T07:48:11.007Z,17.20
2023-05-21T07:49:24.869Z,17.08
2023-05-21T07:50:28.300Z,17.88
2023-05-21T07:51:32.004Z,18.05
2023-05-21T07:52:35.326Z,17.71
2023-05-21T07:53:38.568Z,18.51
2023-05-21T07:54:45.796Z,18.74
2023-05-21T07:55:49.239Z,19.09
2023-05-21T07:56:56.398Z,19.24
2023-05-21T07:58:20.934Z,18.90
2023-05-21T07:59:26.712Z,20.05
2023-05-21T08:00:30.413Z,20.37
2023-05-21T08:01:34.361Z,18.35
2023-05-21T08:02:38.173Z,19.13
2023-05-21T08:03:41.945Z,18.23
2023-05-21T08:04:45.328Z,19.26
2023-05-21T08:05:51.587Z,18.96
2023-05-21T08:06:54.855Z,19.52
2023-05-21T08:07:58.245Z,19.40
2023-05-21T08:09:04.388Z,19.50
2023-05-21T08:10:08.381Z,19.01
2023-05-21T08:11:11.908Z,19.37
2023-05-21T08:12:16.658Z,19.61
2023-05-21T08:13:20.892Z,19.44
2023-05-21T08:14:25.014Z,18.78
2023-05-21T08:15:28.684Z,18.90
2023-05-21T08:16:32.251Z,19.99
2023-05-21T08:17:35.868Z,20.90
2023-05-21T08:18:39.166Z,20.41
2023-05-21T08:19:42.959Z,20.15
2023-05-21T08:20:46.926Z,18.99
2023-05-21T08:21:53.055Z,18.77
2023-05-21T08:22:58.392Z,20.35
2023-05-21T08:24:02.028Z,20.12
2023-05-21T08:25:05.783Z,19.71
2023-05-21T08:26:10.262Z,19.89
2023-05-21T08:27:16.856Z,18.73
2023-05-21T08:28:22.642Z,19.44
2023-05-21T08:29:26.453Z,19.70
2023-05-21T08:30:30.925Z,19.97
2023-05-21T08:31:34.272Z,19.82
2023-05-21T08:32:37.661Z,19.69
2023-05-21T08:33:51.973Z,19.37
2023-05-21T08:34:59.059Z,19.30
2023-05-21T08:36:20.967Z,20.05
2023-05-21T08:37:30.445Z,19.94
2023-05-21T08:39:02.928Z,19.48
2023-05-21T08:40:13.074Z,19.07
2023-05-21T08:41:23.713Z,19.23
2023-05-21T08:42:47.022Z,20.69
2023-05-21T08:44:01.361Z,20.12
2023-05-21T08:45:09.698Z,19.81
2023-05-21T08:46:14.275Z,19.63
2023-05-21T08:47:23.234Z,19.95
2023-05-21T08:48:26.732Z,19.49
2023-05-21T08:49:35.911Z,19.68
2023-05-21T08:50:39.681Z,18.58
2023-05-21T08:51:53.456Z,19.92
2023-05-21T08:52:59.295Z,20.06
2023-05-21T08:54:05.059Z,19.68
2023-05-21T08:55:09.708Z,19.96
2023-05-21T08:56:16.008Z,20.19
2023-05-21T08:57:27.751Z,20.36
2023-05-21T08:58:34.494Z,20.58
2023-05-21T08:59:40.695Z,19.82
2023-05-21T09:00:48.311Z,20.43
2023-05-21T09:01:53.782Z,20.29
2023-05-21T09:03:08.383Z,20.45
2023-05-21T09:04:21.436Z,19.30
2023-05-21T09:05:31.289Z,20.18
2023-05-21T09:06:34.921Z,20.08
2023-05-21T09:08:06.138Z,19.65
2023-05-21T09:09:35.355Z,20.59
2023-05-21T09:10:42.663Z,19.44
2023-05-21T09:11:48.333Z,19.25
2023-05-21T09:12:53.058Z,19.10
2023-05-21T09:13:59.352Z,19.30
2023-05-21T09:15:11.236Z,20.03
2023-05-21T09:16:15.407Z,19.58
2023-05-21T09:17:21.549Z,19.51
2023-05-21T09:18:34.738Z,19.01
2023-05-21T09:20:13.252Z,18.56
2023-05-21T09:21:29.088Z,19.87
2023-05-21T09:22:38.265Z,18.80
2023-05-21T09:23:41.816Z,19.59
2023-05-21T09:24:49.506Z,18.65
2023-05-21T09:25:53.418Z,19.10
2023-05-21T09:27:08.575Z,18.59
2023-05-21T09:28:21.122Z,18.60
2023-05-21T09:29:26.827Z,18.60
2023-05-21T09:30:32.593Z,18.94
2023-05-21T09:31:45.622Z,19.81
2023-05-21T09:32:58.788Z,18.79
2023-05-21T09:34:02.747Z,19.19
2023-05-21T09:35:10.347Z,19.29
2023-05-21T09:36:13.729Z,18.84
2023-05-21T09:37:27.085Z,17.21
2023-05-21T09:38:35.441Z,18.58
2023-05-21T09:39:42.981Z,18.36
2023-05-21T09:40:49.605Z,19.19
2023-05-21T09:41:54.203Z,18.50
2023-05-21T09:42:57.545Z,17.72
2023-05-21T09:44:03.418Z,17.70
2023-05-21T09:45:09.933Z,18.23
2023-05-21T09:46:13.496Z,18.49
2023-05-21T09:47:21.588Z,18.43
2023-05-21T09:48:35.393Z,19.19
2023-05-21T09:49:39.620Z,17.99
2023-05-21T09:50:42.915Z,18.30
2023-05-21T09:51:46.467Z,19.23
2023-05-21T09:52:53.493Z,17.71
2023-05-21T09:53:59.762Z,18.12
2023-05-21T09:55:04.970Z,18.37
2023-05-21T09:56:09.947Z,19.61
2023-05-21T09:57:15.519Z,19.31
2023-05-21T09:58:18.779Z,19.42
2023-05-21T09:59:22.798Z,18.23
2023-05-21T10:00:29.498Z,17.93
2023-05-21T10:01:37.499Z,18.57
2023-05-21T10:02:47.053Z,18.29
2023-05-21T10:04:01.711Z,17.92
2023-05-21T10:05:10.020Z,18.64
2023-05-21T10:06:15.772Z,18.47
2023-05-21T10:07:32.459Z,18.48
2023-05-21T10:08:40.299Z,18.54
2023-05-21T10:09:49.609Z,19.57
2023-05-21T10:10:53.787Z,17.81
2023-05-21T10:11:58.433Z,17.96
2023-05-21T10:13:13.449Z,19.21
2023-05-21T10:14:23.012Z,18.74
2023-05-21T10:15:31.674Z,18.37
2023-05-21T10:16:37.127Z,18.59
2023-05-21T10:17:42.720Z,18.84
2023-05-21T10:18:47.853Z,18.42
2023-05-21T10:19:55.098Z,18.18
2023-05-21T10:21:00.968Z,17.47
2023-05-21T10:22:05.275Z,17.23
2023-05-21T10:23:09.075Z,17.54
2023-05-21T10:24:12.906Z,18.79
2023-05-21T10:25:17.564Z,18.10
2023-05-21T10:26:22.533Z,17.88
2023-05-21T10:27:26.917Z,19.42
2023-05-21T10:28:31.345Z,18.60
2023-05-21T10:29:35.687Z,18.68
2023-05-21T10:30:39.699Z,18.50
2023-05-21T10:31:50.347Z,18.06
2023-05-21T10:32:57.937Z,18.24
2023-05-21T10:34:03.884Z,17.41
2023-05-21T10:35:09.732Z,17.83
2023-05-21T10:36:16.096Z,18.58
2023-05-21T10:37:21.346Z,17.90
2023-05-21T10:38:26.255Z,19.21
2023-05-21T10:39:32.194Z,19.36
2023-05-21T10:40:37.234Z,19.06
2023-05-21T10:41:59.022Z,19.49
2023-05-21T10:43:39.789Z,19.14
2023-05-21T10:44:45.936Z,18.10
2023-05-21T10:46:23.411Z,18.13
2023-05-21T10:47:32.657Z,18.33
2023-05-21T10:48:51.741Z,19.62
2023-05-21T10:50:28.708Z,19.12
2023-05-21T10:52:13.767Z,17.80
2023-05-21T10:53:33.792Z,19.35
2023-05-21T10:54:58.307Z,19.14
2023-05-21T10:56:28.945Z,18.62
2023-05-21T10:58:27.430Z,19.59
2023-05-21T10:59:48.054Z,17.97
2023-05-21T11:00:56.145Z,17.42
2023-05-21T11:02:00.256Z,18.00
2023-05-21T11:03:05.709Z,18.02
2023-05-21T11:04:09.573Z,19.11
2023-05-21T11:05:12.979Z,17.97
2023-05-21T11:06:27.813Z,18.53
2023-05-21T11:07:54.509Z,18.87
2023-05-21T11:08:58.022Z,17.96
2023-05-21T11:10:38.822Z,18.51
2023-05-21T11:11:43.620Z,19.85
2023-05-21T11:13:09.036Z,19.36
2023-05-21T11:14:56.964Z,18.59
2023-05-21T11:16:00.234Z,19.59
2023-05-21T11:17:07.745Z,19.51
2023-05-21T11:18:12.586Z,17.70
2023-05-21T11:19:21.052Z,17.75
2023-05-21T11:20:24.351Z,18.14
2023-05-21T11:21:31.848Z,18.23
2023-05-21T11:22:37.882Z,17.69
2023-05-21T11:24:03.971Z,18.91
2023-05-21T11:25:07.979Z,17.52
2023-05-21T11:26:11.646Z,18.15
2023-05-21T11:27:14.965Z,18.83
2023-05-21T11:28:34.351Z,18.12
2023-05-21T11:29:42.682Z,17.43
2023-05-21T11:31:25.446Z,17.59
2023-05-21T11:32:28.871Z,17.59
2023-05-21T11:33:32.126Z,17.78
2023-05-21T11:34:44.295Z,18.03
2023-05-21T11:35:56.403Z,18.03
2023-05-21T11:37:19.337Z,17.89
2023-05-21T11:38:22.689Z,17.72
2023-05-21T11:39:26.672Z,17.79
2023-05-21T11:40:31.811Z,17.76
2023-05-21T11:42:03.827Z,18.41
2023-05-21T11:43:07.821Z,17.71
2023-05-21T11:44:11.269Z,16.91
2023-05-21T11:45:20.446Z,17.61
2023-05-21T11:46:24.273Z,18.84
2023-05-21T11:47:28.962Z,18.28
2023-05-21T11:48:33.859Z,18.13
2023-05-21T11:49:38.389Z,17.88
2023-05-21T11:50:43.299Z,17.71
2023-05-21T11:51:47.814Z,17.76
2023-05-21T11:52:51.828Z,17.18
2023-05-21T11:53:57.943Z,17.86
2023-05-21T11:55:01.340Z,17.94
2023-05-21T11:56:10.539Z,17.57
2023-05-21T11:57:19.682Z,17.24
2023-05-21T11:58:23.577Z,18.40
2023-05-21T11:59:27.233Z,18.14
2023-05-21T12:00:30.453Z,18.56
2023-05-21T12:01:33.802Z,17.79
2023-05-21T12:02:37.203Z,17.70
2023-05-21T12:03:41.014Z,18.08
2023-05-21T12:04:45.474Z,18.13
2023-05-21T12:05:49.865Z,18.54
2023-05-21T12:06:53.223Z,18.45
2023-05-21T12:07:57.105Z,17.45
2023-05-21T12:09:00.412Z,17.42
2023-05-21T12:10:04.222Z,17.44
2023-05-21T12:11:07.645Z,17.71
2023-05-21T12:12:14.337Z,19.05
2023-05-21T12:13:17.591Z,18.83
2023-05-21T12:14:24.049Z,18.31
2023-05-21T12:15:28.292Z,18.77
2023-05-21T12:16:33.409Z,18.53
2023-05-21T12:17:36.924Z,19.57
2023-05-21T12:18:40.362Z,18.50
2023-05-21T12:19:44.759Z,18.20
2023-05-21T12:20:48.277Z,18.43
2023-05-21T12:21:51.850Z,18.64
2023-05-21T12:22:55.281Z,18.09
2023-05-21T12:23:58.620Z,18.18
2023-05-21T12:25:02.413Z,18.23
2023-05-21T12:26:06.208Z,17.84
2023-05-21T12:27:10.524Z,18.52
2023-05-21T12:28:13.995Z,17.90
2023-05-21T12:29:17.555Z,17.72
2023-05-21T12:30:22.035Z,17.05
2023-05-21T12:31:25.542Z,17.26
2023-05-21T12:32:29.985Z,17.06
2023-05-21T12:33:36.844Z,17.16
2023-05-21T12:34:47.004Z,16.42
2023-05-21T12:35:52.328Z,16.28
2023-05-21T12:36:55.839Z,17.03
2023-05-21T12:38:02.650Z,17.21
2023-05-21T12:39:06.147Z,17.01
2023-05-21T12:40:10.061Z,16.11
2023-05-21T12:41:13.376Z,15.04
2023-05-21T12:42:18.140Z,15.42
2023-05-21T12:43:22.557Z,15.29
2023-05-21T12:44:32.023Z,16.39
2023-05-21T12:45:38.406Z,15.92
2023-05-21T12:46:43.483Z,16.23
2023-05-21T12:47:51.221Z,17.42
2023-05-21T12:48:56.228Z,16.94
2023-05-21T12:49:59.917Z,16.29
2023-05-21T12:51:03.323Z,16.41
2023-05-21T12:52:10.771Z,16.60
2023-05-21T12:53:14.238Z,17.08
2023-05-21T12:54:17.541Z,16.53
2023-05-21T12:55:24.792Z,15.90
2023-05-21T12:56:27.978Z,16.61
2023-05-21T12:57:39.528Z,17.14
2023-05-21T12:58:50.668Z,16.35
2023-05-21T12:59:59.355Z,15.72
2023-05-21T13:01:05.182Z,14.99
2023-05-21T13:02:08.857Z,15.72
2023-05-21T13:03:12.519Z,15.09
2023-05-21T13:04:16.121Z,15.79
2023-05-21T13:05:20.548Z,15.94
2023-05-21T13:06:24.099Z,15.29
2023-05-21T13:07:29.562Z,14.57
2023-05-21T13:08:35.198Z,14.09
2023-05-21T13:09:38.600Z,14.41
2023-05-21T13:10:41.977Z,14.99
2023-05-21T13:11:45.508Z,14.56
2023-05-21T13:12:49.109Z,14.17
2023-05-21T13:13:52.658Z,13.93
2023-05-21T13:14:59.067Z,13.45
2023-05-21T13:16:02.694Z,13.85
2023-05-21T13:17:07.552Z,13.08
2023-05-21T13:18:13.033Z,13.16
2023-05-21T13:19:16.699Z,13.15
2023-05-21T13:20:22.402Z,13.96
2023-05-21T13:21:25.761Z,14.09
2023-05-21T13:22:29.084Z,13.78
2023-05-21T13:23:32.315Z,14.32
2023-05-21T13:24:35.688Z,13.73
2023-05-21T13:25:39.077Z,14.14
2023-05-21T13:26:42.933Z,14.70
2023-05-21T13:27:46.691Z,14.68
2023-05-21T13:28:50.016Z,13.11
2023-05-21T13:29:57.049Z,12.64
2023-05-21T13:31:00.591Z,12.95
2023-05-21T13:32:03.972Z,13.20
2023-05-21T13:33:07.688Z,13.88
2023-05-21T13:34:14.360Z,13.08
2023-05-21T13:35:18.177Z,13.65
2023-05-21T13:36:21.585Z,12.95
2023-05-21T13:37:25.549Z,12.22
2023-05-21T13:38:29.147Z,12.02
2023-05-21T13:39:32.731Z,12.52
2023-05-21T13:40:38.746Z,12.02
2023-05-21T13:41:43.231Z,12.14
2023-05-21T13:42:49.503Z,11.58
2023-05-21T13:43:52.869Z,11.84
2023-05-21T13:44:56.267Z,11.61
2023-05-21T13:45:59.677Z,11.50
2023-05-21T13:47:04.237Z,10.50
2023-05-21T13:48:07.721Z,10.84
2023-05-21T13:49:11.192Z,11.23
2023-05-21T13:50:15.001Z,11.57
2023-05-21T13:51:37.049Z,11.43
2023-05-21T13:52:41.843Z,10.82
2023-05-21T13:53:45.548Z,10.79
2023-05-21T13:54:49.019Z,10.78
2023-05-21T13:55:52.472Z,10.60
2023-05-21T13:56:57.004Z,10.87
2023-05-21T13:58:00.385Z,10.36
2023-05-21T13:59:03.762Z,9.72
2023-05-21T14:00:10.041Z,10.09
2023-05-21T14:01:13.580Z,9.86
2023-05-21T14:02:17.049Z,9.92
2023-05-21T14:03:21.045Z,8.94
2023-05-21T14:04:24.673Z,9.18
2023-05-21T14:05:28.004Z,9.99
2023-05-21T14:06:35.973Z,9.13
2023-05-21T14:07:40.707Z,9.12
2023-05-21T14:08:43.971Z,9.20
2023-05-21T14:09:48.406Z,8.89
2023-05-21T14:10:52.776Z,9.17
2023-05-21T14:11:56.874Z,8.52
2023-05-21T14:13:11.234Z,8.56
2023-05-21T14:14:19.802Z,8.18
2023-05-21T14:15:23.171Z,7.64
2023-05-21T14:16:28.255Z,7.85
2023-05-21T14:17:31.751Z,7.90
2023-05-21T14:18:35.218Z,7.99
2023-05-21T14:19:38.630Z,8.15
2023-05-21T14:20:42.017Z,8.00
2023-05-21T14:21:45.633Z,7.49
2023-05-21T14:22:48.887Z,8.20
2023-05-21T14:23:52.863Z,7.92
2023-05-21T14:24:56.857Z,7.95